createdAt,value
2023-05-31T00:01:28.219Z,101438.16
2023-05-31T00:04:00.087Z,101432.33
2023-05-31T00:06:31.991Z,101439.94
2023-05-31T00:09:03.943Z,101438.70
2023-05-31T00:11:35.951Z,101441.86
2023-05-31T00:14:07.968Z,101441.86
2023-05-31T00:19:14.724Z,101444.44
2023-05-31T00:21:48.799Z,101449.14
2023-05-31T00:24:21.026Z,101454.34
2023-05-31T00:26:52.873Z,101451.49
2023-05-31T00:29:27.086Z,101450.68
2023-05-31T00:31:59.477Z,101452.11
2023-05-31T00:34:31.490Z,101450.81
2023-05-31T00:37:03.498Z,101448.42
2023-05-31T00:39:35.863Z,101447.93
2023-05-31T00:42:09.728Z,101444.81
2023-05-31T00:44:40.911Z,101438.39
2023-05-31T00:47:13.419Z,101443.87
2023-05-31T00:49:45.631Z,101445.29
2023-05-31T00:52:17.661Z,101447.41
2023-05-31T00:54:49.680Z,101445.52
2023-05-31T00:57:21.984Z,101442.79
2023-05-31T00:59:54.383Z,101448.48
2023-05-31T01:02:27.116Z,101447.11
2023-05-31T01:04:59.557Z,101448.95
2023-05-31T01:07:31.607Z,101451.91
2023-05-31T01:10:04.618Z,101454.33
2023-05-31T01:12:40.372Z,101455.11
2023-05-31T01:15:21.023Z,101454.94
2023-05-31T01:18:00.610Z,101455.28
2023-05-31T01:20:35.172Z,101461.95
2023-05-31T01:23:28.770Z,101462.49
2023-05-31T01:26:18.654Z,101464.31
2023-05-31T01:28:53.238Z,101466.95
2023-05-31T01:31:25.887Z,101478.10
2023-05-31T01:33:58.322Z,101483.02
2023-05-31T01:36:30.262Z,101484.90
2023-05-31T01:39:02.598Z,101485.98
2023-05-31T01:41:40.848Z,101490.34
2023-05-31T01:44:15.304Z,101486.33
2023-05-31T01:46:47.766Z,101484.66
2023-05-31T01:49:19.706Z,101487.71
2023-05-31T01:51:52.233Z,101486.73
2023-05-31T01:54:24.250Z,101490.34
2023-05-31T01:56:56.163Z,101488.74
2023-05-31T01:59:28.710Z,101484.34
2023-05-31T02:02:00.914Z,101485.46
2023-05-31T02:04:33.130Z,101489.16
2023-05-31T02:07:05.346Z,101489.04
2023-05-31T02:09:37.542Z,101490.63
2023-05-31T02:12:11.889Z,101494.31
2023-05-31T02:14:43.862Z,101493.67
2023-05-31T02:17:15.928Z,101497.70
2023-05-31T02:19:48.224Z,101498.09
2023-05-31T02:22:21.059Z,101502.35
2023-05-31T02:24:53.908Z,101505.13
2023-05-31T02:27:26.062Z,101500.14
2023-05-31T02:29:57.892Z,101506.47
2023-05-31T02:32:29.777Z,101506.61
2023-05-31T02:35:01.630Z,101510.66
2023-05-31T02:37:33.609Z,101501.71
2023-05-31T02:40:08.685Z,101512.02
2023-05-31T02:42:42.127Z,101513.02
2023-05-31T02:45:15.299Z,101515.55
2023-05-31T02:47:47.430Z,101511.12
2023-05-31T02:50:19.937Z,101504.40
2023-05-31T02:52:58.700Z,101514.44
2023-05-31T02:55:53.524Z,101507.88
2023-05-31T02:58:25.992Z,101509.84
2023-05-31T03:01:16.857Z,101516.20
2023-05-31T03:04:02.765Z,101516.11
2023-05-31T03:06:38.009Z,101519.19
2023-05-31T03:09:15.341Z,101520.06
2023-05-31T03:11:50.123Z,101523.41
2023-05-31T03:14:23.215Z,101522.96
2023-05-31T03:16:59.292Z,101517.31
2023-05-31T03:19:31.231Z,101524.88
2023-05-31T03:22:06.874Z,101515.91
2023-05-31T03:24:39.111Z,101526.39
2023-05-31T03:27:11.151Z,101528.33
2023-05-31T03:29:44.974Z,101531.45
2023-05-31T03:32:17.849Z,101529.79
2023-05-31T03:34:49.743Z,101528.66
2023-05-31T03:37:22.326Z,101525.16
2023-05-31T03:40:05.515Z,101522.86
2023-05-31T03:42:38.851Z,101522.48
2023-05-31T03:45:11.234Z,101518.27
2023-05-31T03:47:43.180Z,101521.70
2023-05-31T03:50:15.403Z,101520.23
2023-05-31T03:52:48.062Z,101518.52
2023-05-31T03:55:21.871Z,101510.77
2023-05-31T03:57:54.510Z,101510.91
2023-05-31T04:00:26.662Z,101513.66
2023-05-31T04:03:04.623Z,101516.27
2023-05-31T04:05:38.942Z,101517.91
2023-05-31T04:08:12.647Z,101522.00
2023-05-31T04:10:44.738Z,101519.15
2023-05-31T04:13:16.549Z,101521.57
2023-05-31T04:15:48.900Z,101516.73
2023-05-31T04:18:21.220Z,101515.38
2023-05-31T04:20:53.281Z,101514.73
2023-05-31T04:23:25.223Z,101519.42
2023-05-31T04:25:58.931Z,101515.20
2023-05-31T04:28:33.000Z,101512.40
2023-05-31T04:31:05.200Z,101510.88
2023-05-31T04:33:38.051Z,101516.73
2023-05-31T04:36:10.972Z,101516.29
2023-05-31T04:38:43.430Z,101517.94
2023-05-31T04:41:15.711Z,101520.48
2023-05-31T04:43:48.661Z,101516.27
2023-05-31T04:46:23.798Z,101512.52
2023-05-31T04:48:56.798Z,101507.91
2023-05-31T04:51:28.730Z,101503.52
2023-05-31T04:54:01.009Z,101502.00
2023-05-31T04:56:32.985Z,101495.52
2023-05-31T04:59:05.632Z,101496.65
2023-05-31T05:01:38.527Z,101503.04
2023-05-31T05:04:17.578Z,101499.53
2023-05-31T05:06:49.579Z,101500.14
2023-05-31T05:09:22.534Z,101499.64
2023-05-31T05:11:57.057Z,101499.88
2023-05-31T05:14:29.196Z,101504.83
2023-05-31T05:17:01.192Z,101499.75
2023-05-31T05:19:33.382Z,101499.40
2023-05-31T05:22:05.930Z,101498.44
2023-05-31T05:24:41.447Z,101496.72
2023-05-31T05:27:14.090Z,101496.36
2023-05-31T05:29:46.599Z,101497.23
2023-05-31T05:32:19.935Z,101498.73
2023-05-31T05:34:52.129Z,101496.29
2023-05-31T05:37:24.247Z,101499.27
2023-05-31T05:39:57.216Z,101499.60
2023-05-31T05:42:29.563Z,101498.17
2023-05-31T05:45:01.518Z,101498.05
2023-05-31T05:47:33.358Z,101503.71
2023-05-31T05:50:06.119Z,101506.25
2023-05-31T05:52:38.097Z,101503.10
2023-05-31T05:55:13.218Z,101501.18
2023-05-31T05:57:45.203Z,101498.69
2023-05-31T06:00:32.630Z,101501.95
2023-05-31T06:03:05.480Z,101506.45
2023-05-31T06:05:37.575Z,101509.10
2023-05-31T06:08:10.494Z,101508.77
2023-05-31T06:10:42.496Z,101507.84
2023-05-31T06:13:14.562Z,101505.99
2023-05-31T06:15:46.368Z,101498.02
2023-05-31T06:18:18.297Z,101505.00
2023-05-31T06:20:51.099Z,101503.48
2023-05-31T06:23:22.998Z,101501.48
2023-05-31T06:25:54.893Z,101495.89
2023-05-31T06:28:27.231Z,101500.36
2023-05-31T06:31:01.988Z,101499.84
2023-05-31T06:33:35.890Z,101490.86
2023-05-31T06:36:08.707Z,101487.30
2023-05-31T06:38:40.848Z,101487.59
2023-05-31T06:41:13.159Z,101476.38
2023-05-31T06:43:45.561Z,101475.95
2023-05-31T06:46:41.268Z,101473.17
2023-05-31T06:49:38.130Z,101469.60
2023-05-31T06:52:39.580Z,101461.50
2023-05-31T06:55:30.626Z,101467.89
2023-05-31T06:58:02.883Z,101464.12
2023-05-31T07:00:36.659Z,101458.16
2023-05-31T07:03:09.242Z,101459.17
2023-05-31T07:05:45.242Z,101458.70
2023-05-31T07:08:18.105Z,101450.29
2023-05-31T07:11:09.941Z,101447.52
2023-05-31T07:13:41.929Z,101451.58
2023-05-31T07:16:14.262Z,101450.73
2023-05-31T07:18:47.080Z,101449.18
2023-05-31T07:21:19.063Z,101448.91
2023-05-31T07:23:51.273Z,101445.33
2023-05-31T07:26:23.424Z,101442.27
2023-05-31T07:28:55.301Z,101439.02
2023-05-31T07:31:27.154Z,101437.86
2023-05-31T07:33:59.269Z,101436.41
2023-05-31T07:36:31.505Z,101432.17
2023-05-31T07:39:06.994Z,101430.95
2023-05-31T07:41:39.342Z,101430.17
2023-05-31T07:44:12.361Z,101426.30
2023-05-31T07:46:44.329Z,101419.11
2023-05-31T07:49:16.305Z,101418.39
2023-05-31T07:51:48.412Z,101421.48
2023-05-31T07:54:20.444Z,101421.11
2023-05-31T07:56:52.373Z,101415.53
2023-05-31T07:59:25.238Z,101415.98
2023-05-31T08:01:57.163Z,101414.82
2023-05-31T08:04:29.022Z,101408.58
2023-05-31T08:07:02.203Z,101404.48
2023-05-31T08:09:33.991Z,101404.20
2023-05-31T08:12:07.868Z,101404.05
2023-05-31T08:14:40.236Z,101408.09
2023-05-31T08:17:12.084Z,101398.56
2023-05-31T08:19:44.064Z,101401.52
2023-05-31T08:22:15.988Z,101408.95
2023-05-31T08:24:47.926Z,101408.67
2023-05-31T08:27:20.180Z,101414.64
2023-05-31T08:29:52.262Z,101413.08
2023-05-31T08:32:24.179Z,101413.04
2023-05-31T08:34:56.123Z,101406.47
2023-05-31T08:37:28.221Z,101402.19
2023-05-31T08:40:00.174Z,101401.38
2023-05-31T08:42:38.196Z,101396.13
2023-05-31T08:45:12.686Z,101389.13
2023-05-31T08:47:47.659Z,101393.09
2023-05-31T08:50:21.379Z,101395.80
2023-05-31T08:52:54.061Z,101394.96
2023-05-31T08:55:27.452Z,101391.13
2023-05-31T08:58:00.234Z,101393.03
2023-05-31T09:00:32.283Z,101398.27
2023-05-31T09:03:05.094Z,101390.58
2023-05-31T09:05:37.129Z,101396.48
2023-05-31T09:08:09.306Z,101395.76
2023-05-31T09:10:43.167Z,101393.20
2023-05-31T09:13:15.154Z,101395.52
2023-05-31T09:15:48.296Z,101386.86
2023-05-31T09:18:22.780Z,101393.61
2023-05-31T09:20:57.027Z,101389.02
2023-05-31T09:23:29.226Z,101392.42
2023-05-31T09:26:02.587Z,101386.02
2023-05-31T09:28:34.974Z,101382.38
2023-05-31T09:31:08.394Z,101389.55
2023-05-31T09:33:45.169Z,101382.20
2023-05-31T09:36:25.700Z,101382.65
2023-05-31T09:39:05.422Z,101386.23
2023-05-31T09:41:36.238Z,101382.52
2023-05-31T09:44:11.441Z,101382.61
2023-05-31T09:46:43.324Z,101382.09
2023-05-31T09:49:15.851Z,101376.08
2023-05-31T09:51:54.705Z,101380.06
2023-05-31T09:54:28.683Z,101372.44
2023-05-31T09:57:02.943Z,101382.63
2023-05-31T09:59:36.148Z,101371.98
2023-05-31T10:02:08.495Z,101373.73
2023-05-31T10:04:40.731Z,101373.04
2023-05-31T10:07:44.887Z,101368.29
2023-05-31T10:10:21.158Z,101368.33
2023-05-31T10:12:56.157Z,101365.27
2023-05-31T10:15:28.959Z,101360.55
2023-05-31T10:18:03.303Z,101357.57
2023-05-31T10:20:40.858Z,101357.48
2023-05-31T10:23:18.103Z,101358.58
2023-05-31T10:25:57.352Z,101352.98
2023-05-31T10:28:32.644Z,101356.41
2023-05-31T10:31:05.327Z,101359.25
2023-05-31T10:33:37.285Z,101353.88
2023-05-31T10:36:09.866Z,101355.23
2023-05-31T10:38:45.182Z,101356.42
2023-05-31T10:41:26.008Z,101357.86
2023-05-31T10:44:03.366Z,101359.35
2023-05-31T10:46:38.158Z,101353.45
2023-05-31T10:49:12.725Z,101355.89
2023-05-31T10:51:46.667Z,101345.85
2023-05-31T10:54:28.711Z,101348.82
2023-05-31T10:57:01.305Z,101350.27
2023-05-31T10:59:43.968Z,101353.59
2023-05-31T11:02:16.527Z,101352.02
2023-05-31T11:04:50.622Z,101349.06
2023-05-31T11:07:27.311Z,101342.33
2023-05-31T11:10:01.294Z,101335.61
2023-05-31T11:12:37.980Z,101333.20
2023-05-31T11:15:16.468Z,101327.95
2023-05-31T11:17:56.224Z,101332.38
2023-05-31T11:20:26.580Z,101330.76
2023-05-31T11:23:31.771Z,101328.30
2023-05-31T11:26:16.552Z,101324.80
2023-05-31T11:29:03.258Z,101315.64
2023-05-31T11:32:05.273Z,101313.06
2023-05-31T11:34:39.233Z,101312.64
2023-05-31T11:37:11.420Z,101309.57
2023-05-31T11:39:47.477Z,101312.41
2023-05-31T11:42:19.700Z,101305.86
2023-05-31T11:44:53.383Z,101295.88
2023-05-31T11:47:29.754Z,101296.52
2023-05-31T11:50:02.104Z,101292.68
2023-05-31T11:52:34.004Z,101293.94
2023-05-31T11:55:12.589Z,101288.45
2023-05-31T11:57:46.504Z,101284.86
2023-05-31T12:00:22.508Z,101279.27
2023-05-31T12:02:58.258Z,101274.26
2023-05-31T12:05:30.576Z,101273.40
2023-05-31T12:08:02.493Z,101267.52
2023-05-31T12:10:35.448Z,101266.89
2023-05-31T12:13:07.345Z,101266.27
2023-05-31T12:15:39.203Z,101263.27
2023-05-31T12:18:11.568Z,101258.20
2023-05-31T12:20:46.194Z,101258.74
2023-05-31T12:23:20.885Z,101256.52
2023-05-31T12:25:53.466Z,101248.44
2023-05-31T12:28:25.300Z,101255.52
2023-05-31T12:30:57.696Z,101251.34
2023-05-31T12:33:32.037Z,101247.20
2023-05-31T12:36:07.213Z,101239.96
2023-05-31T12:38:41.472Z,101237.52
2023-05-31T12:41:13.297Z,101233.88
2023-05-31T12:43:45.253Z,101229.16
2023-05-31T12:46:21.038Z,101222.48
2023-05-31T12:48:53.074Z,101222.17
2023-05-31T12:51:25.973Z,101215.58
2023-05-31T12:53:57.761Z,101213.75
2023-05-31T12:56:29.585Z,101211.53
2023-05-31T12:59:01.807Z,101206.50
2023-05-31T13:01:33.900Z,101203.56
2023-05-31T13:04:05.918Z,101206.62
2023-05-31T13:06:38.013Z,101202.05
2023-05-31T13:09:10.133Z,101201.08
2023-05-31T13:11:42.886Z,101191.78
2023-05-31T13:14:16.007Z,101185.64
2023-05-31T13:16:49.794Z,101188.25
2023-05-31T13:19:21.838Z,101185.30
2023-05-31T13:21:53.667Z,101186.39
2023-05-31T13:24:25.547Z,101179.60
2023-05-31T13:26:57.459Z,101182.86
2023-05-31T13:29:29.410Z,101179.44
2023-05-31T13:32:01.555Z,101168.98
2023-05-31T13:34:34.088Z,101164.80
2023-05-31T13:37:06.822Z,101162.33
2023-05-31T13:39:38.856Z,101160.95
2023-05-31T13:42:11.691Z,101160.67
2023-05-31T13:44:43.662Z,101154.29
2023-05-31T13:47:15.670Z,101145.51
2023-05-31T13:49:47.592Z,101149.91
2023-05-31T13:52:19.547Z,101149.28
2023-05-31T13:54:51.546Z,101137.66
2023-05-31T13:57:23.436Z,101135.44
2023-05-31T13:59:58.481Z,101137.04
2023-05-31T14:02:33.372Z,101122.13
2023-05-31T14:05:05.604Z,101123.57
2023-05-31T14:07:37.506Z,101121.34
2023-05-31T14:10:11.676Z,101116.79
2023-05-31T14:12:43.855Z,101113.59
2023-05-31T14:15:15.854Z,101117.56
2023-05-31T14:17:47.770Z,101116.26
2023-05-31T14:20:19.596Z,101108.73
2023-05-31T14:22:51.493Z,101110.36
2023-05-31T14:25:23.442Z,101107.06
2023-05-31T14:27:55.727Z,101103.48
2023-05-31T14:30:28.698Z,101102.98
2023-05-31T14:33:00.785Z,101103.23
2023-05-31T14:35:33.591Z,101100.69
2023-05-31T14:38:15.800Z,101088.25
2023-05-31T14:40:56.880Z,101092.73
2023-05-31T14:43:28.764Z,101081.11
2023-05-31T14:46:00.668Z,101081.25
2023-05-31T14:48:32.987Z,101077.41
2023-05-31T14:51:04.968Z,101078.30
2023-05-31T14:53:36.791Z,101080.18
2023-05-31T14:56:17.914Z,101071.92
2023-05-31T14:58:50.668Z,101060.96
2023-05-31T15:01:22.721Z,101057.00
2023-05-31T15:03:56.411Z,101056.98
2023-05-31T15:06:28.584Z,101052.34
2023-05-31T15:09:00.582Z,101055.06
2023-05-31T15:11:32.503Z,101054.31
2023-05-31T15:14:04.499Z,101048.46
2023-05-31T15:16:38.246Z,101052.28
2023-05-31T15:19:10.107Z,101051.84
2023-05-31T15:21:42.569Z,101043.17
2023-05-31T15:24:15.259Z,101046.14
2023-05-31T15:26:47.423Z,101044.13
2023-05-31T15:29:19.244Z,101036.96
2023-05-31T15:31:52.093Z,101042.65
2023-05-31T15:34:25.589Z,101038.58
2023-05-31T15:36:59.029Z,101035.77
2023-05-31T15:39:30.981Z,101036.45
2023-05-31T15:42:05.338Z,101034.02
2023-05-31T15:44:37.347Z,101033.16
2023-05-31T15:47:10.689Z,101029.92
2023-05-31T15:49:42.662Z,101027.92
2023-05-31T15:52:14.638Z,101032.55
2023-05-31T15:54:46.541Z,101034.00
2023-05-31T15:57:18.670Z,101031.11
2023-05-31T15:59:51.484Z,101031.11
2023-05-31T16:02:23.780Z,101031.03
2023-05-31T16:04:55.612Z,101025.74
2023-05-31T16:07:28.698Z,101017.98
2023-05-31T16:10:00.784Z,101011.72
2023-05-31T16:12:33.009Z,101014.52
2023-05-31T16:15:05.237Z,101012.81
2023-05-31T16:17:37.110Z,101012.30
2023-05-31T16:20:11.098Z,101011.13
2023-05-31T16:22:41.330Z,101011.15
2023-05-31T16:25:13.667Z,101008.39
2023-05-31T16:27:46.033Z,101005.17
2023-05-31T16:30:18.080Z,101004.08
2023-05-31T16:32:49.928Z,100994.45
2023-05-31T16:35:21.995Z,100992.91
2023-05-31T16:37:53.963Z,100991.91
2023-05-31T16:40:25.823Z,100988.76
2023-05-31T16:42:57.741Z,100990.96
2023-05-31T16:45:30.300Z,100992.73
2023-05-31T16:48:02.323Z,100992.77
2023-05-31T16:50:34.252Z,100987.64
2023-05-31T16:53:06.353Z,100990.41
2023-05-31T16:55:38.251Z,100991.04
2023-05-31T16:58:10.209Z,100987.48
2023-05-31T17:00:44.017Z,100986.77
2023-05-31T17:03:14.535Z,100982.81
2023-05-31T17:05:47.362Z,100979.46
2023-05-31T17:08:19.342Z,100977.09
2023-05-31T17:10:51.200Z,100970.39
2023-05-31T17:13:23.202Z,100965.27
2023-05-31T17:15:55.175Z,100968.04
2023-05-31T17:18:26.957Z,100966.61
2023-05-31T17:20:59.912Z,100964.96
2023-05-31T17:23:31.756Z,100964.37
2023-05-31T17:26:04.148Z,100966.67
2023-05-31T17:28:36.284Z,100964.87
2023-05-31T17:31:08.238Z,100959.73
2023-05-31T17:33:40.194Z,100955.83
2023-05-31T17:36:13.220Z,100954.34
2023-05-31T17:38:45.349Z,100952.17
2023-05-31T17:41:19.081Z,100951.27
2023-05-31T17:43:51.960Z,100945.80
2023-05-31T17:46:23.886Z,100944.69
2023-05-31T17:48:57.337Z,100948.07
2023-05-31T17:51:29.382Z,100942.63
2023-05-31T17:54:01.244Z,100947.16
2023-05-31T17:56:33.354Z,100943.34
2023-05-31T17:59:05.192Z,100942.21
2023-05-31T18:01:43.628Z,100943.84
2023-05-31T18:04:17.219Z,100937.20
2023-05-31T18:06:49.150Z,100938.14
2023-05-31T18:09:21.428Z,100936.31
2023-05-31T18:11:54.081Z,100930.42
2023-05-31T18:14:25.889Z,100929.33
2023-05-31T18:16:57.865Z,100933.33
2023-05-31T18:19:30.428Z,100931.35
2023-05-31T18:22:02.352Z,100923.15
2023-05-31T18:24:35.539Z,100929.98
2023-05-31T18:27:17.555Z,100936.47
2023-05-31T18:29:50.749Z,100934.20
2023-05-31T18:32:22.584Z,100930.26
2023-05-31T18:34:54.509Z,100935.95
2023-05-31T18:37:26.546Z,100935.11
2023-05-31T18:39:58.472Z,100936.63
2023-05-31T18:42:30.280Z,100933.83
2023-05-31T18:45:03.453Z,100926.60
2023-05-31T18:47:35.635Z,100932.38
2023-05-31T18:50:09.398Z,100932.66
2023-05-31T18:52:41.294Z,100927.23
2023-05-31T18:55:13.432Z,100930.09
2023-05-31T18:57:45.279Z,100931.75
2023-05-31T19:00:21.663Z,100935.43
2023-05-31T19:02:53.899Z,100937.35
2023-05-31T19:05:26.101Z,100938.13
2023-05-31T19:07:57.958Z,100940.36
2023-05-31T19:10:29.893Z,100939.89
2023-05-31T19:13:01.841Z,100940.72
2023-05-31T19:15:33.713Z,100942.57
2023-05-31T19:18:17.611Z,100943.10
2023-05-31T19:20:51.445Z,100941.27
2023-05-31T19:23:23.390Z,100933.24
2023-05-31T19:25:55.260Z,100935.98
2023-05-31T19:28:27.152Z,100936.93
2023-05-31T19:30:59.125Z,100940.80
2023-05-31T19:33:30.959Z,100940.61
2023-05-31T19:36:03.579Z,100942.20
2023-05-31T19:38:35.911Z,100939.05
2023-05-31T19:41:08.563Z,100933.40
2023-05-31T19:43:40.462Z,100938.54
2023-05-31T19:46:21.090Z,100945.48
2023-05-31T19:48:53.068Z,100939.90
2023-05-31T19:51:25.315Z,100937.52
2023-05-31T19:53:57.317Z,100938.88
2023-05-31T19:56:29.874Z,100938.52
2023-05-31T19:59:02.283Z,100937.70
2023-05-31T20:01:34.553Z,100934.23
2023-05-31T20:04:06.497Z,100935.98
2023-05-31T20:06:38.497Z,100937.27
2023-05-31T20:09:11.259Z,100937.80
2023-05-31T20:11:43.323Z,100936.23
2023-05-31T20:14:15.883Z,100935.82
2023-05-31T20:16:47.806Z,100938.09
2023-05-31T20:19:19.871Z,100940.85
2023-05-31T20:21:53.199Z,100939.33
2023-05-31T20:24:26.984Z,100940.23
2023-05-31T20:26:58.791Z,100940.33
2023-05-31T20:29:30.648Z,100937.91
2023-05-31T20:32:03.890Z,100936.23
2023-05-31T20:34:36.007Z,100934.57
2023-05-31T20:37:08.270Z,100928.06
2023-05-31T20:39:40.145Z,100935.10
2023-05-31T20:42:12.582Z,100930.28
2023-05-31T20:44:46.303Z,100922.07
2023-05-31T20:47:19.026Z,100930.64
2023-05-31T20:49:51.224Z,100927.70
2023-05-31T20:52:23.133Z,100927.00
2023-05-31T20:54:55.283Z,100922.41
2023-05-31T20:57:27.705Z,100917.30
2023-05-31T20:59:59.748Z,100917.46
2023-05-31T21:02:31.679Z,100918.66
2023-05-31T21:05:03.739Z,100914.33
2023-05-31T21:07:35.616Z,100920.55
2023-05-31T21:10:08.555Z,100919.61
2023-05-31T21:12:40.565Z,100911.02
2023-05-31T21:15:13.603Z,100918.64
2023-05-31T21:17:45.502Z,100907.30
2023-05-31T21:20:17.766Z,100916.31
2023-05-31T21:22:49.594Z,100915.70
2023-05-31T21:25:24.400Z,100913.69
2023-05-31T21:27:56.964Z,100910.48
2023-05-31T21:30:28.874Z,100906.76
2023-05-31T21:33:00.795Z,100906.48
2023-05-31T21:35:32.734Z,100904.52
2023-05-31T21:38:04.619Z,100904.73
2023-05-31T21:40:36.486Z,100903.73
2023-05-31T21:43:08.399Z,100905.84
2023-05-31T21:45:40.366Z,100902.94
2023-05-31T21:48:12.363Z,100901.53
2023-05-31T21:50:44.479Z,100899.80
2023-05-31T21:53:16.493Z,100902.30
2023-05-31T21:55:48.295Z,100901.43
2023-05-31T21:58:20.172Z,100899.16
2023-05-31T22:00:52.839Z,100893.96
2023-05-31T22:03:24.866Z,100895.05
2023-05-31T22:05:57.440Z,100900.98
2023-05-31T22:08:29.399Z,100897.14
2023-05-31T22:11:01.624Z,100898.45
2023-05-31T22:13:35.401Z,100889.86
2023-05-31T22:16:11.833Z,100897.04
2023-05-31T22:18:46.875Z,100895.29
2023-05-31T22:21:24.586Z,100891.64
2023-05-31T22:23:56.660Z,100884.39
2023-05-31T22:26:31.512Z,100885.31
2023-05-31T22:29:03.578Z,100886.05
2023-05-31T22:31:35.599Z,100882.65
2023-05-31T22:34:07.612Z,100885.57
2023-05-31T22:36:39.495Z,100874.15
2023-05-31T22:39:11.310Z,100880.63
2023-05-31T22:41:43.134Z,100876.10
2023-05-31T22:44:15.628Z,100875.06
2023-05-31T22:46:47.552Z,100875.58
2023-05-31T22:49:22.034Z,100873.15
2023-05-31T22:51:54.179Z,100873.92
2023-05-31T22:54:26.057Z,100874.17
2023-05-31T22:56:58.008Z,100873.19
2023-05-31T22:59:29.857Z,100871.54
2023-05-31T23:02:01.792Z,100872.06
2023-05-31T23:04:34.592Z,100876.08
2023-05-31T23:07:07.030Z,100874.73
2023-05-31T23:09:39.188Z,100866.20
2023-05-31T23:12:12.007Z,100877.45
2023-05-31T23:14:43.966Z,100878.91
2023-05-31T23:17:17.625Z,100875.42
2023-05-31T23:19:49.775Z,100872.36
2023-05-31T23:22:21.720Z,100869.27
2023-05-31T23:24:53.710Z,100865.63
2023-05-31T23:27:27.154Z,100863.27
2023-05-31T23:29:58.939Z,100858.37
2023-05-31T23:32:30.926Z,100860.85
2023-05-31T23:35:02.954Z,100856.25
2023-05-31T23:37:35.043Z,100856.30
2023-05-31T23:40:08.544Z,100859.00
2023-05-31T23:42:40.433Z,100861.04
2023-05-31T23:45:13.473Z,100858.69
2023-05-31T23:47:45.347Z,100857.86
2023-05-31T23:50:18.024Z,100857.48
2023-05-31T23:52:49.964Z,100849.77
2023-05-31T23:55:21.843Z,100850.04
2023-05-31T23:57:53.661Z,100850.60
